createdAt,value
2023-03-21T00:00:59.864Z,25.80
2023-03-21T00:03:28.024Z,40.80
2023-03-21T00:05:55.468Z,35.73
2023-03-21T00:08:24.700Z,34.20
2023-03-21T00:10:57.013Z,37.03
2023-03-21T00:13:25.845Z,35.23
2023-03-21T00:16:20.280Z,33.43
2023-03-21T00:18:42.466Z,40.87
2023-03-21T00:21:44.328Z,38.27
2023-03-21T00:24:01.980Z,35.00
2023-03-21T00:26:29.284Z,34.33
2023-03-21T00:28:56.573Z,39.03
2023-03-21T00:31:24.430Z,34.57
2023-03-21T00:33:52.417Z,36.53
2023-03-21T00:36:20.984Z,38.37
2023-03-21T00:38:48.202Z,34.70
2023-03-21T00:41:25.927Z,41.33
2023-03-21T00:44:03.365Z,36.50
2023-03-21T00:46:42.796Z,42.40
2023-03-21T00:49:13.596Z,44.03
2023-03-21T00:51:43.062Z,33.13
2023-03-21T00:54:12.332Z,38.67
2023-03-21T00:56:39.733Z,32.67
2023-03-21T00:59:06.966Z,48.93
2023-03-21T01:01:34.564Z,35.13
2023-03-21T01:04:04.671Z,38.03
2023-03-21T01:06:38.662Z,43.10
2023-03-21T01:09:07.204Z,38.43
2023-03-21T01:11:35.527Z,46.90
2023-03-21T01:14:15.093Z,46.37
2023-03-21T01:16:49.177Z,38.70
2023-03-21T01:19:26.350Z,35.60
2023-03-21T01:21:57.769Z,38.50
2023-03-21T01:24:25.146Z,44.10
2023-03-21T01:26:52.492Z,38.70
2023-03-21T01:29:19.814Z,38.73
2023-03-21T01:31:47.340Z,38.97
2023-03-21T01:34:14.886Z,45.80
2023-03-21T01:36:42.270Z,35.53
2023-03-21T01:39:10.755Z,41.30
2023-03-21T01:41:43.466Z,39.73
2023-03-21T01:44:16.874Z,35.93
2023-03-21T01:46:57.402Z,53.23
2023-03-21T01:49:34.430Z,31.63
2023-03-21T01:52:12.728Z,37.40
2023-03-21T01:54:44.165Z,40.30
2023-03-21T01:57:15.232Z,33.60
2023-03-21T01:59:45.844Z,37.43
2023-03-21T02:02:17.378Z,36.87
2023-03-21T02:04:50.112Z,35.13
2023-03-21T02:07:23.646Z,31.30
2023-03-21T02:09:53.027Z,36.57
2023-03-21T02:12:20.471Z,22.10
2023-03-21T02:14:49.499Z,40.30
2023-03-21T02:17:23.879Z,45.93
2023-03-21T02:20:28.472Z,37.20
2023-03-21T02:23:41.292Z,42.07
2023-03-21T02:26:42.874Z,39.27
2023-03-21T02:29:52.059Z,41.23
2023-03-21T02:32:37.712Z,39.53
2023-03-21T02:35:24.996Z,39.43
2023-03-21T02:38:00.798Z,44.00
2023-03-21T02:40:32.673Z,43.13
2023-03-21T02:43:09.125Z,44.53
2023-03-21T02:45:44.699Z,43.90
2023-03-21T02:48:27.681Z,39.07
2023-03-21T02:51:00.383Z,45.97
2023-03-21T02:53:33.754Z,42.37
2023-03-21T02:56:02.799Z,47.20
2023-03-21T02:58:31.798Z,42.17
2023-03-21T03:00:59.174Z,47.13
2023-03-21T03:03:33.886Z,46.63
2023-03-21T03:06:03.901Z,45.77
2023-03-21T03:08:52.956Z,56.53
2023-03-21T03:11:29.608Z,47.30
2023-03-21T03:14:38.492Z,39.40
2023-03-21T03:17:15.879Z,44.20
2023-03-21T03:19:54.993Z,44.00
2023-03-21T03:22:27.304Z,48.07
2023-03-21T03:25:04.751Z,47.90
2023-03-21T03:27:43.340Z,44.80
2023-03-21T03:30:12.363Z,53.70
2023-03-21T03:32:45.561Z,45.03
2023-03-21T03:35:15.255Z,49.00
2023-03-21T03:37:45.512Z,43.63
2023-03-21T03:40:18.029Z,40.77
2023-03-21T03:42:49.296Z,48.30
2023-03-21T03:45:17.688Z,43.73
2023-03-21T03:47:56.831Z,46.70
2023-03-21T03:50:30.109Z,47.13
2023-03-21T03:53:09.820Z,41.97
2023-03-21T03:55:44.720Z,47.93
2023-03-21T03:58:21.598Z,56.23
2023-03-21T04:00:50.459Z,44.07
2023-03-21T04:03:18.857Z,47.07
2023-03-21T04:05:46.444Z,54.23
2023-03-21T04:08:14.959Z,49.33
2023-03-21T04:10:43.372Z,52.43
2023-03-21T04:13:10.863Z,48.37
2023-03-21T04:15:38.216Z,51.00
2023-03-21T04:18:05.689Z,43.97
2023-03-21T04:20:37.247Z,46.37
2023-03-21T04:23:04.888Z,48.40
2023-03-21T04:25:34.671Z,47.13
2023-03-21T04:28:03.369Z,55.00
2023-03-21T04:30:33.636Z,45.60
2023-03-21T04:33:01.138Z,59.87
2023-03-21T04:35:28.757Z,67.47
2023-03-21T04:37:56.616Z,57.27
2023-03-21T04:40:24.891Z,75.13
2023-03-21T04:42:52.316Z,51.37
2023-03-21T04:45:20.327Z,45.13
2023-03-21T04:47:47.656Z,59.30
2023-03-21T04:50:15.228Z,100.13
2023-03-21T04:52:42.552Z,92.53
2023-03-21T04:55:10.656Z,68.37
2023-03-21T04:57:38.081Z,74.17
2023-03-21T05:00:09.570Z,93.17
2023-03-21T05:02:37.817Z,74.20
2023-03-21T05:05:06.214Z,68.90
2023-03-21T05:07:33.757Z,58.13
2023-03-21T05:10:02.524Z,59.77
2023-03-21T05:12:30.107Z,58.57
2023-03-21T05:14:57.425Z,52.87
2023-03-21T05:17:27.754Z,44.07
2023-03-21T05:19:56.159Z,187.97
2023-03-21T05:22:26.077Z,64.23
2023-03-21T05:24:54.669Z,50.47
2023-03-21T05:27:35.040Z,47.50
2023-03-21T05:30:05.456Z,37.83
2023-03-21T05:32:33.105Z,38.57
2023-03-21T05:35:01.361Z,36.93
2023-03-21T05:37:28.870Z,37.00
2023-03-21T05:39:56.225Z,37.20
2023-03-21T05:42:23.648Z,21.90
2023-03-21T05:44:50.982Z,25.30
2023-03-21T05:47:20.035Z,24.77
2023-03-21T05:49:47.581Z,29.00
2023-03-21T05:52:15.757Z,21.40
2023-03-21T05:54:43.365Z,19.93
2023-03-21T05:57:10.872Z,19.20
2023-03-21T05:59:38.269Z,27.53
2023-03-21T06:02:05.989Z,22.30
2023-03-21T06:04:33.299Z,26.77
2023-03-21T06:07:00.671Z,22.57
2023-03-21T06:09:28.776Z,24.80
2023-03-21T06:11:57.025Z,19.43
2023-03-21T06:14:24.730Z,31.10
2023-03-21T06:16:53.229Z,24.83
2023-03-21T06:19:21.189Z,18.00
2023-03-21T06:21:49.173Z,15.97
2023-03-21T06:24:17.174Z,30.23
2023-03-21T06:26:45.728Z,17.80
2023-03-21T06:29:13.349Z,13.80
2023-03-21T06:31:40.766Z,15.40
2023-03-21T06:34:10.013Z,13.00
2023-03-21T06:36:37.340Z,17.47
2023-03-21T06:39:06.400Z,13.07
2023-03-21T06:41:33.716Z,16.37
2023-03-21T06:44:02.010Z,16.33
2023-03-21T06:46:29.622Z,13.70
2023-03-21T06:48:56.965Z,15.10
2023-03-21T06:51:24.348Z,12.37
2023-03-21T06:53:51.651Z,17.23
2023-03-21T06:56:19.236Z,17.17
2023-03-21T06:58:46.696Z,15.27
2023-03-21T07:01:15.250Z,17.50
2023-03-21T07:03:43.338Z,20.70
2023-03-21T07:06:11.634Z,22.80
2023-03-21T07:08:39.416Z,17.43
2023-03-21T07:11:07.712Z,23.10
2023-03-21T07:13:35.033Z,27.73
2023-03-21T07:16:02.700Z,24.13
2023-03-21T07:18:31.339Z,52.50
2023-03-21T07:20:58.772Z,20.80
2023-03-21T07:23:27.450Z,16.73
2023-03-21T07:25:55.571Z,28.13
2023-03-21T07:28:23.661Z,19.77
2023-03-21T07:30:54.807Z,16.53
2023-03-21T07:33:22.709Z,30.47
2023-03-21T07:35:51.182Z,26.90
2023-03-21T07:38:18.813Z,25.50
2023-03-21T07:40:47.011Z,20.00
2023-03-21T07:43:14.701Z,17.40
2023-03-21T07:45:42.337Z,19.20
2023-03-21T07:48:10.223Z,19.33
2023-03-21T07:50:37.520Z,16.03
2023-03-21T07:53:05.650Z,15.03
2023-03-21T07:55:34.169Z,19.53
2023-03-21T07:58:01.777Z,18.90
2023-03-21T08:00:29.243Z,18.47
2023-03-21T08:02:59.066Z,25.77
2023-03-21T08:05:28.426Z,20.77
2023-03-21T08:07:55.749Z,19.00
2023-03-21T08:10:24.120Z,16.33
2023-03-21T08:12:51.473Z,15.43
2023-03-21T08:15:19.178Z,21.37
2023-03-21T08:17:46.679Z,11.50
2023-03-21T08:20:16.020Z,14.37
2023-03-21T08:22:44.070Z,12.70
2023-03-21T08:25:13.198Z,12.90
2023-03-21T08:27:42.071Z,18.93
2023-03-21T08:30:11.771Z,10.90
2023-03-21T08:32:39.373Z,15.63
2023-03-21T08:35:09.382Z,14.93
2023-03-21T08:37:36.881Z,21.77
2023-03-21T08:40:07.314Z,16.03
2023-03-21T08:42:34.921Z,12.20
2023-03-21T08:45:04.236Z,28.93
2023-03-21T08:47:31.630Z,11.40
2023-03-21T08:49:59.256Z,13.40
2023-03-21T08:52:27.279Z,22.00
2023-03-21T08:54:54.618Z,30.13
2023-03-21T08:57:21.878Z,17.60
2023-03-21T08:59:49.321Z,17.70
2023-03-21T09:02:17.845Z,18.00
2023-03-21T09:04:45.480Z,16.23
2023-03-21T09:07:14.292Z,13.60
2023-03-21T09:09:41.990Z,15.60
2023-03-21T09:12:09.631Z,14.73
2023-03-21T09:14:36.989Z,14.50
2023-03-21T09:17:04.303Z,15.20
2023-03-21T09:19:32.414Z,14.17
2023-03-21T09:21:59.980Z,20.97
2023-03-21T09:24:27.242Z,22.13
2023-03-21T09:26:54.656Z,15.10
2023-03-21T09:29:22.521Z,14.53
2023-03-21T09:31:52.749Z,19.73
2023-03-21T09:34:20.621Z,14.60
2023-03-21T09:36:51.108Z,13.87
2023-03-21T09:39:18.358Z,15.00
2023-03-21T09:42:18.695Z,14.53
2023-03-21T09:45:00.671Z,17.70
2023-03-21T09:47:34.011Z,16.10
2023-03-21T09:50:17.481Z,15.57
2023-03-21T09:52:47.726Z,13.63
2023-03-21T09:55:18.645Z,14.07
2023-03-21T09:57:48.642Z,19.57
2023-03-21T10:00:24.209Z,18.73
2023-03-21T10:02:57.370Z,23.80
2023-03-21T10:05:27.504Z,21.27
2023-03-21T10:08:03.745Z,22.37
2023-03-21T10:10:36.013Z,20.63
2023-03-21T10:13:04.797Z,38.23
2023-03-21T10:15:32.085Z,14.93
2023-03-21T10:18:02.279Z,16.43
2023-03-21T10:20:32.422Z,26.80
2023-03-21T10:23:03.743Z,19.40
2023-03-21T10:25:34.459Z,17.27
2023-03-21T10:28:03.065Z,17.80
2023-03-21T10:30:38.174Z,13.23
2023-03-21T10:33:09.012Z,8.57
2023-03-21T10:35:39.155Z,106.90
2023-03-21T10:38:11.896Z,28.90
2023-03-21T10:40:39.171Z,10.33
2023-03-21T10:43:30.379Z,16.73
2023-03-21T10:45:57.983Z,10.10
2023-03-21T10:48:25.781Z,8.23
2023-03-21T10:50:55.929Z,21.67
2023-03-21T10:53:29.637Z,11.87
2023-03-21T10:55:59.606Z,6.90
2023-03-21T10:58:28.823Z,10.87
2023-03-21T11:00:58.204Z,12.70
2023-03-21T11:03:30.556Z,12.93
2023-03-21T11:06:02.272Z,19.83
2023-03-21T11:08:30.668Z,15.53
2023-03-21T11:11:03.678Z,12.80
2023-03-21T11:13:37.258Z,34.43
2023-03-21T11:16:10.227Z,14.57
2023-03-21T11:18:41.789Z,9.23
2023-03-21T11:21:11.421Z,38.40
2023-03-21T11:23:44.834Z,14.50
2023-03-21T11:26:17.647Z,20.60
2023-03-21T11:28:46.113Z,15.83
2023-03-21T11:31:13.621Z,12.17
2023-03-21T11:33:47.489Z,16.93
2023-03-21T11:36:35.506Z,16.37
2023-03-21T11:39:24.401Z,17.77
2023-03-21T11:41:52.571Z,19.10
2023-03-21T11:44:29.344Z,16.50
2023-03-21T11:46:56.956Z,22.23
2023-03-21T11:49:25.467Z,11.13
2023-03-21T11:52:17.689Z,13.70
2023-03-21T11:55:23.116Z,9.17
2023-03-21T11:58:13.453Z,8.93
2023-03-21T12:00:50.768Z,20.63
2023-03-21T12:03:48.579Z,19.87
2023-03-21T12:06:24.764Z,14.33
2023-03-21T12:09:03.689Z,20.33
2023-03-21T12:11:43.234Z,17.53
2023-03-21T12:14:19.124Z,21.40
2023-03-21T12:17:04.832Z,11.60
2023-03-21T12:19:55.867Z,10.13
2023-03-21T12:22:33.012Z,10.40
2023-03-21T12:25:08.012Z,5.53
2023-03-21T12:27:44.200Z,10.63
2023-03-21T12:30:33.273Z,8.70
2023-03-21T12:33:18.579Z,15.57
2023-03-21T12:36:04.025Z,7.53
2023-03-21T12:38:40.377Z,16.17
2023-03-21T12:41:20.375Z,13.87
2023-03-21T12:43:54.795Z,14.13
2023-03-21T12:46:27.909Z,14.73
2023-03-21T12:49:02.617Z,7.30
2023-03-21T12:51:33.236Z,8.70
2023-03-21T12:54:07.292Z,7.13
2023-03-21T12:56:40.229Z,11.97
2023-03-21T12:59:18.832Z,20.50
2023-03-21T13:01:49.060Z,12.33
2023-03-21T13:04:34.126Z,16.07
2023-03-21T13:07:06.772Z,9.80
2023-03-21T13:09:38.365Z,17.37
2023-03-21T13:12:30.265Z,20.67
2023-03-21T13:15:21.822Z,20.57
2023-03-21T13:17:59.064Z,48.47
2023-03-21T13:20:32.544Z,20.60
2023-03-21T13:23:00.515Z,10.73
2023-03-21T13:25:32.694Z,14.63
2023-03-21T13:28:03.583Z,8.40
2023-03-21T13:30:32.140Z,14.97
2023-03-21T13:33:06.294Z,10.23
2023-03-21T13:35:37.405Z,18.90
2023-03-21T13:38:12.113Z,7.13
2023-03-21T13:40:43.415Z,5.77
2023-03-21T13:43:33.619Z,8.73
2023-03-21T13:46:08.323Z,10.43
2023-03-21T13:49:01.371Z,6.40
2023-03-21T13:51:50.606Z,11.30
2023-03-21T13:54:23.410Z,7.13
2023-03-21T13:56:53.616Z,21.43
2023-03-21T13:59:38.402Z,18.73
2023-03-21T14:02:22.170Z,6.10
2023-03-21T14:05:04.918Z,24.50
2023-03-21T14:07:35.990Z,9.73
2023-03-21T14:10:06.508Z,45.90
2023-03-21T14:12:39.993Z,43.27
2023-03-21T14:15:16.708Z,12.93
2023-03-21T14:17:53.785Z,5.33
2023-03-21T14:20:24.189Z,5.33
2023-03-21T14:22:51.674Z,21.53
2023-03-21T14:25:21.323Z,13.47
2023-03-21T14:27:51.959Z,10.03
2023-03-21T14:30:25.007Z,16.63
2023-03-21T14:32:56.271Z,26.33
2023-03-21T14:35:25.247Z,51.70
2023-03-21T14:37:52.536Z,5.90
2023-03-21T14:40:22.647Z,6.70
2023-03-21T14:42:50.958Z,8.13
2023-03-21T14:45:21.090Z,5.93
2023-03-21T14:48:00.302Z,6.57
2023-03-21T14:50:34.162Z,11.03
2023-03-21T14:53:01.826Z,7.40
2023-03-21T14:55:29.185Z,92.90
2023-03-21T14:57:57.237Z,8.13
2023-03-21T15:00:26.829Z,9.23
2023-03-21T15:02:56.900Z,10.53
2023-03-21T15:05:29.057Z,5.43
2023-03-21T15:07:57.883Z,7.60
2023-03-21T15:10:26.825Z,8.53
2023-03-21T15:12:57.108Z,11.80
2023-03-21T15:15:36.821Z,14.43
2023-03-21T15:18:06.571Z,7.73
2023-03-21T15:20:37.395Z,13.93
2023-03-21T15:23:08.993Z,13.80
2023-03-21T15:25:37.673Z,22.07
2023-03-21T15:28:06.531Z,4.80
2023-03-21T15:30:35.285Z,13.87
2023-03-21T15:33:08.963Z,5.23
2023-03-21T15:35:40.805Z,4.27
2023-03-21T15:38:33.436Z,6.60
2023-03-21T15:41:28.462Z,3.97
2023-03-21T15:44:02.721Z,6.90
2023-03-21T15:46:39.699Z,11.97
2023-03-21T15:49:08.713Z,28.43
2023-03-21T15:51:46.594Z,10.37
2023-03-21T15:54:18.391Z,33.30
2023-03-21T15:56:50.931Z,6.60
2023-03-21T15:59:18.790Z,9.93
2023-03-21T16:01:48.464Z,9.20
2023-03-21T16:04:23.728Z,5.20
2023-03-21T16:07:05.522Z,12.53
2023-03-21T16:09:43.017Z,5.63
2023-03-21T16:12:13.763Z,10.30
2023-03-21T16:14:52.016Z,5.93
2023-03-21T16:17:37.546Z,5.37
2023-03-21T16:20:17.060Z,6.03
2023-03-21T16:23:32.179Z,5.47
2023-03-21T16:26:11.464Z,5.40
2023-03-21T16:28:42.879Z,5.17
2023-03-21T16:31:18.760Z,8.53
2023-03-21T16:33:52.058Z,8.47
2023-03-21T16:36:28.969Z,5.80
2023-03-21T16:39:05.234Z,6.20
2023-03-21T16:41:39.016Z,4.73
2023-03-21T16:44:10.726Z,8.47
2023-03-21T16:46:44.420Z,8.93
2023-03-21T16:49:25.932Z,30.40
2023-03-21T16:51:56.682Z,11.30
2023-03-21T16:54:30.319Z,8.03
2023-03-21T16:57:04.216Z,12.27
2023-03-21T16:59:41.180Z,9.83
2023-03-21T17:02:19.784Z,9.30
2023-03-21T17:04:47.604Z,9.57
2023-03-21T17:07:18.998Z,12.23
2023-03-21T17:09:52.891Z,8.03
2023-03-21T17:12:26.207Z,10.40
2023-03-21T17:14:57.228Z,7.70
2023-03-21T17:17:27.967Z,10.03
2023-03-21T17:20:00.113Z,20.57
2023-03-21T17:22:27.826Z,9.40
2023-03-21T17:24:56.315Z,15.03
2023-03-21T17:27:23.830Z,11.77
2023-03-21T17:29:51.334Z,8.37
2023-03-21T17:32:18.790Z,13.97
2023-03-21T17:34:47.897Z,13.13
2023-03-21T17:37:15.730Z,13.00
2023-03-21T17:39:44.671Z,12.17
2023-03-21T17:42:17.530Z,11.03
2023-03-21T17:44:47.689Z,13.20
2023-03-21T17:47:15.650Z,11.67
2023-03-21T17:49:46.222Z,15.00
2023-03-21T17:52:14.645Z,13.83
2023-03-21T17:54:41.981Z,16.03
2023-03-21T17:57:11.579Z,14.93
2023-03-21T17:59:39.812Z,17.30
2023-03-21T18:02:07.439Z,24.03
2023-03-21T18:04:35.129Z,31.50
2023-03-21T18:07:09.172Z,26.37
2023-03-21T18:09:38.064Z,26.90
2023-03-21T18:12:05.692Z,25.80
2023-03-21T18:15:14.097Z,20.90
2023-03-21T18:17:44.717Z,17.80
2023-03-21T18:20:13.996Z,33.50
2023-03-21T18:22:41.476Z,41.43
2023-03-21T18:25:09.925Z,38.97
2023-03-21T18:28:02.074Z,32.40
2023-03-21T18:30:47.323Z,9.30
2023-03-21T18:33:14.074Z,18.00
2023-03-21T18:35:41.471Z,14.70
2023-03-21T18:38:08.823Z,12.17
2023-03-21T18:40:36.694Z,21.23
2023-03-21T18:45:52.019Z,44.73
2023-03-21T18:48:20.429Z,14.03
2023-03-21T18:50:47.705Z,20.07
2023-03-21T18:53:15.829Z,20.60
2023-03-21T18:55:46.538Z,21.90
2023-03-21T18:58:15.847Z,25.00
2023-03-21T19:00:43.855Z,35.63
2023-03-21T19:03:21.460Z,27.90
2023-03-21T19:05:59.866Z,30.13
2023-03-21T19:08:27.543Z,27.70
2023-03-21T19:10:59.624Z,25.03
2023-03-21T19:13:29.565Z,24.07
2023-03-21T19:15:57.471Z,24.07
2023-03-21T19:18:53.041Z,27.70
2023-03-21T19:21:16.408Z,25.13
2023-03-21T19:24:20.904Z,19.83
2023-03-21T19:26:31.081Z,19.60
2023-03-21T19:28:58.392Z,18.97
2023-03-21T19:31:26.092Z,25.27
2023-03-21T19:33:53.430Z,28.47
2023-03-21T19:36:23.176Z,39.60
2023-03-21T19:38:50.875Z,47.43
2023-03-21T19:41:19.351Z,24.47
2023-03-21T19:43:54.117Z,22.70
2023-03-21T19:46:23.978Z,18.50
2023-03-21T19:48:55.960Z,16.00
2023-03-21T19:51:29.411Z,18.50
2023-03-21T19:53:57.262Z,19.83
2023-03-21T19:56:27.002Z,21.77
2023-03-21T19:58:54.558Z,24.23
2023-03-21T20:01:22.359Z,23.17
2023-03-21T20:03:49.827Z,27.80
2023-03-21T20:06:17.856Z,18.93
2023-03-21T20:11:33.277Z,17.37
2023-03-21T20:14:02.345Z,27.47
2023-03-21T20:16:34.940Z,21.27
2023-03-21T20:19:04.082Z,21.77
2023-03-21T20:21:40.238Z,27.63
2023-03-21T20:24:15.575Z,21.30
2023-03-21T20:26:44.456Z,16.60
2023-03-21T20:30:05.469Z,11.70
2023-03-21T20:32:00.332Z,13.63
2023-03-21T20:34:28.478Z,20.10
2023-03-21T20:36:58.118Z,34.20
2023-03-21T20:39:29.464Z,40.40
2023-03-21T20:41:58.935Z,32.30
2023-03-21T20:47:12.615Z,18.83
2023-03-21T20:49:40.373Z,20.73
2023-03-21T20:52:54.371Z,25.37
2023-03-21T20:55:02.881Z,29.77
2023-03-21T20:57:30.292Z,23.13
2023-03-21T20:59:58.791Z,14.53
2023-03-21T21:02:26.881Z,8.97
2023-03-21T21:05:24.039Z,11.27
2023-03-21T21:07:45.696Z,19.13
2023-03-21T21:10:16.733Z,10.50
2023-03-21T21:12:45.151Z,12.03
2023-03-21T21:18:13.170Z,16.17
2023-03-21T21:20:51.989Z,16.60
2023-03-21T21:23:34.582Z,22.73
2023-03-21T21:29:23.493Z,15.20
2023-03-21T21:31:51.419Z,13.80
2023-03-21T21:34:19.227Z,17.43
2023-03-21T21:36:49.821Z,14.97
2023-03-21T21:39:17.251Z,17.97
2023-03-21T21:41:48.376Z,13.67
2023-03-21T21:44:18.829Z,12.60
2023-03-21T21:46:46.497Z,19.13
2023-03-21T21:49:14.013Z,15.43
2023-03-21T21:51:41.539Z,15.90
2023-03-21T21:54:09.281Z,17.80
2023-03-21T21:56:38.165Z,21.53
2023-03-21T21:59:06.449Z,14.60
2023-03-21T22:01:34.582Z,16.30
2023-03-21T22:04:10.304Z,24.73
2023-03-21T22:06:55.374Z,18.53
2023-03-21T22:09:25.669Z,31.77
2023-03-21T22:12:05.678Z,19.70
2023-03-21T22:14:40.386Z,21.83
2023-03-21T22:17:16.823Z,16.37
2023-03-21T22:20:05.488Z,22.87
2023-03-21T22:22:34.101Z,23.97
2023-03-21T22:25:01.532Z,19.20
2023-03-21T22:27:48.088Z,15.47
2023-03-21T22:30:17.936Z,15.30
2023-03-21T22:33:09.661Z,21.90
2023-03-21T22:35:45.143Z,20.70
2023-03-21T22:38:17.297Z,17.57
2023-03-21T22:40:54.470Z,18.90
2023-03-21T22:43:25.429Z,23.60
2023-03-21T22:46:06.498Z,25.57
2023-03-21T22:48:47.140Z,13.40
2023-03-21T22:51:17.500Z,23.30
2023-03-21T22:54:03.284Z,16.33
2023-03-21T22:56:31.304Z,19.60
2023-03-21T22:59:00.624Z,16.07
2023-03-21T23:01:30.880Z,14.23
2023-03-21T23:04:00.422Z,14.50
2023-03-21T23:06:28.412Z,16.60
2023-03-21T23:09:00.126Z,17.87
2023-03-21T23:11:28.010Z,21.67
2023-03-21T23:14:07.741Z,17.07
2023-03-21T23:16:43.502Z,22.00
2023-03-21T23:19:11.135Z,19.60
2023-03-21T23:21:39.036Z,16.53
2023-03-21T23:24:07.594Z,26.13
2023-03-21T23:26:35.386Z,19.13
2023-03-21T23:29:02.767Z,17.80
2023-03-21T23:31:32.165Z,18.60
2023-03-21T23:34:00.800Z,16.10
2023-03-21T23:36:28.339Z,36.23
2023-03-21T23:38:55.963Z,17.80
2023-03-21T23:41:24.904Z,15.60
2023-03-21T23:43:52.574Z,15.07
2023-03-21T23:46:19.947Z,17.90
2023-03-21T23:48:47.940Z,18.53
2023-03-21T23:51:17.714Z,16.20
2023-03-21T23:53:45.568Z,16.60
2023-03-21T23:56:14.860Z,12.20
2023-03-21T23:58:42.145Z,14.43
